Weather observations for the past three days for
Creston Municipal Airport
Metric (Imperial)
Date Time (cdt) Wind (kph) Vis. (km) Weather Sky Cond. Temperature (ºC) Relative Humidity Wind Chill (°C) Heat Index (°C) Pressure Precipitation (cm)
Air Dwpt 6 hour altimeter (cm) sea level (mb) 1 hr 3 hr 6 hr
Max. Min.
04 19:55 N 31 G 44 16.09 Fair CLR 20 2 30% 75.26 0.0
04 19:35 N 26 G 37 16.09 Fair CLR 21 2 29% 75.26 0.0
04 19:15 N 30 G 46 16.09 Fair CLR 22 2 27% 75.21 0.0
04 18:55 N 39 G 48 16.09 Fair and Breezy CLR 23 2 25% 75.18 0.0
04 18:35 N 33 G 48 14.48 Fair and Breezy CLR 24 3 25% 25 75.16 0.0
04 18:15 N 35 G 48 16.09 Fair and Breezy CLR 25 4 26% 25 75.13 0.0
04 17:55 NW 30 G 43 16.09 Fair CLR 25 6 30% 25 75.13 0.0
04 17:35 NW 28 G 39 16.09 Fair CLR 26 7 30% 26 75.11 0.0
04 17:15 NW 30 G 41 16.09 A Few Clouds FEW100 26 7 30% 26 75.08 0.0
04 16:55 NW 24 G 44 16.09 Partly Cloudy SCT100 26 6 28% 26 75.08 0.0
04 16:35 W 22 G 43 14.48 A Few Clouds FEW100 27 4 23% 26 75.06 0.0
04 16:15 NW 20 G 46 16.09 A Few Clouds FEW110 27 4 23% 26 75.06 0.0
04 15:55 W 22 G 37 14.48 Fair CLR 27 5 24% 26 75.08 0.0
04 15:35 NW 22 16.09 Fair CLR 27 6 26% 26 75.08 0.0
04 15:15 W 17 G 39 16.09 Fair CLR 27 5 24% 26 75.08 0.0
04 14:55 NW 30 16.09 Fair CLR 27 5 24% 26 75.08 0.0
04 14:35 W 30 G 43 16.09 Fair CLR 27 5 24% 26 75.08 0.0
04 14:15 W 20 G 39 16.09 Fair CLR 27 6 26% 26 75.11 0.0
04 13:55 NW 22 G 35 16.09 A Few Clouds FEW090 27 7 28% 26 75.11 0.0
04 13:35 W 17 G 35 16.09 Fair CLR 26 8 32% 26 75.11 0.0
04 13:15 W 24 G 33 0.00 Fair CLR 26 8 32% 26 75.11 0.0
04 12:55 W 22 G 31 16.09 Fair CLR 26 10 37% 26 75.11 0.0
04 12:35 W 20 16.09 Fair CLR 26 9 34% 26 75.13 0.0
04 12:15 SW 19 G 30 16.09 Fair CLR 25 10 39% 26 75.13 0.0
04 11:55 W 17 G 28 16.09 Fair CLR 25 10 39% 26 75.13 0.0
04 11:35 SW 19 G 28 16.09 Fair CLR 24 10 41% 25 75.13 0.0
04 11:15 W 20 16.09 Fair CLR 24 10 41% 25 75.16 0.0
04 10:55 Calm 14.48 Fair CLR 23 10 44% 75.13 0.0
04 10:35 SW 13 16.09 Fair CLR 22 10 47% 75.13 0.0
04 10:15 SW 13 16.09 Fair CLR 21 10 50% 75.13 0.0
04 09:55 SW 13 16.09 Fair CLR 20 10 53% 75.13 0.0
04 09:35 SW 19 16.09 Fair CLR 19 9 52% 75.16 0.0
04 09:15 SW 15 16.09 A Few Clouds FEW110 18 9 56% 75.16 0.0
04 08:55 SW 17 16.09 A Few Clouds FEW110 17 9 60% 75.18 0.0
04 08:35 S 13 16.09 Partly Cloudy SCT110 16 9 63% 75.18 0.0
04 08:15 S 15 16.09 A Few Clouds FEW110 15 8 63% 75.18 0.0
04 07:55 S 17 14.48 A Few Clouds FEW120 15 8 63% 75.18 0.0
04 07:35 S 11 16.09 Fair CLR 13 7 67% 75.18 0.0
04 06:55 SE 7 16.09 Fair CLR 11 5 67% 75.18 0.0
04 06:35 SE 7 16.09 Fair CLR 10 4 67% 9 75.18 0.0
04 06:15 S 7 16.09 Fair CLR 10 4 67% 9 75.18 0.0
04 05:55 S 11 16.09 Fair CLR 11 4 62% 75.21 0.0
04 05:35 S 7 16.09 Fair CLR 12 4 58% 75.23 0.0
04 05:15 S 9 16.09 Fair CLR 11 4 62% 75.23 0.0
04 04:55 S 13 16.09 Fair CLR 12 4 58% 75.26 0.0
04 04:35 S 13 16.09 Fair CLR 11 4 62% 75.26 0.0
04 04:15 S 15 16.09 Fair CLR 12 4 58% 75.29 0.0
04 03:55 S 11 16.09 Fair CLR 11 4 62% 75.31 0.0
04 03:35 S 11 16.09 Fair CLR 11 4 62% 75.34 0.0
04 03:15 S 17 16.09 Fair CLR 11 4 62% 75.36 0.0
04 02:55 S 17 16.09 Fair CLR 11 4 62% 75.39 0.0
04 02:35 S 9 16.09 Fair CLR 11 5 67% 75.41 0.0
04 02:15 S 7 16.09 Fair CLR 11 5 67% 75.44 0.0
04 01:55 S 7 16.09 Fair CLR 12 5 63% 75.44 0.0
04 01:35 S 9 16.09 Fair CLR 13 4 55% 75.46 0.0
04 01:15 S 6 16.09 Fair CLR 13 4 55% 75.51 0.0
04 00:55 S 11 16.09 Fair CLR 12 5 63% 75.54 0.0
04 00:35 S 11 16.09 Fair CLR 14 4 51% 75.54 0.0
04 00:15 SW 7 16.09 Fair CLR 14 3 48% 75.54 0.0
03 23:55 SW 7 16.09 Fair CLR 13 4 55% 75.54 0.0
03 23:35 Calm 16.09 Fair CLR 15 3 45% 75.57 0.0
03 23:15 SW 6 16.09 Fair CLR 15 3 45% 75.57 0.0
03 22:55 Calm 16.09 Fair CLR 15 3 45% 75.57 0.0
03 22:35 Calm 16.09 Fair CLR 17 3 39% 75.62 0.0
03 22:15 SW 7 16.09 Fair CLR 17 2 37% 75.62 0.0
03 21:55 SW 7 16.09 Fair CLR 18 1 32% 75.64 0.0
03 21:35 W 6 16.09 Fair CLR 19 1 30% 75.64 0.0
03 21:15 NW 7 16.09 Fair CLR 19 1 30% 75.64 0.0
03 20:55 NW 6 16.09 Fair CLR 18 2 34% 75.64 0.0
03 20:35 Calm 16.09 Fair CLR 19 2 32% 75.62 0.0
03 20:15 W 6 16.09 Fair CLR 19 2 32% 75.62 0.0
03 19:55 W 6 16.09 Fair CLR 20 2 30% 75.64 0.0
03 19:35 W 9 16.09 Fair CLR 20 3 33% 75.64 0.0
03 19:15 W 9 16.09 Fair CLR 20 3 33% 75.67 0.0
03 18:55 W 19 16.09 Fair CLR 21 2 29% 75.67 0.0
03 18:35 NW 15 16.09 Fair CLR 22 2 27% 75.67 0.0
03 18:15 NW 19 G 30 16.09 Fair CLR 22 1 25% 75.67 0.0
03 17:55 NW 19 G 28 16.09 Fair CLR 22 2 27% 75.67 0.0
03 17:35 NW 22 16.09 Fair CLR 22 2 27% 75.67 0.0
03 17:15 Calm 16.09 Fair CLR 22 2 27% 75.69 0.0
03 16:55 W 20 16.09 Fair CLR 22 2 27% 75.69 0.0
03 16:35 NW 17 G 33 16.09 Fair CLR 22 2 27% 75.69 0.0
03 16:15 NW 24 G 41 16.09 Fair CLR 22 2 27% 75.72 0.0
03 15:55 NW 28 G 37 16.09 Fair CLR 22 2 27% 75.72 0.0
03 15:35 Calm 16.09 Fair CLR 22 3 29% 75.74 0.0
03 15:15 W 26 G 41 16.09 Fair CLR 22 2 27% 75.74 0.0
03 14:55 NW 22 G 35 16.09 Fair CLR 22 3 29% 75.74 0.0
03 14:35 NW 26 G 39 16.09 Fair CLR 22 3 29% 75.74 0.0
03 14:15 W 26 G 35 16.09 Fair CLR 22 4 31% 75.77 0.0
03 13:55 NW 24 G 39 16.09 Fair CLR 22 3 29% 75.77 0.0
03 13:35 NW 31 16.09 Fair CLR 22 3 29% 75.77 0.0
03 13:15 NW 22 G 43 16.09 Fair CLR 21 4 33% 75.79 0.0
03 12:55 W 28 16.09 Fair CLR 21 6 38% 75.82 0.0
03 12:35 W 26 16.09 Fair CLR 20 5 38% 75.82 0.0
03 12:15 W 19 G 35 16.09 Fair CLR 20 6 40% 75.82 0.0
03 11:55 W 24 G 39 16.09 Fair CLR 19 5 40% 75.84 0.0
03 11:35 W 24 G 33 16.09 Fair CLR 19 5 40% 75.82 0.0
03 11:15 Calm 16.09 Fair CLR 18 5 43% 75.82 0.0
03 10:55 W 24 G 35 16.09 Fair CLR 17 5 45% 75.84 0.0
03 10:35 W 28 16.09 Fair CLR 16 5 48% 75.82 0.0
03 10:15 W 31 G 43 16.09 Fair CLR 16 5 48% 75.82 0.0
03 09:55 W 28 G 46 16.09 Fair CLR 15 4 48% 75.79 0.0
03 09:35 W 22 G 37 16.09 Fair CLR 14 4 51% 75.82 0.0
03 09:15 SW 22 G 35 16.09 Fair CLR 13 3 51% 75.82 0.0
03 08:55 SW 26 16.09 Fair CLR 12 3 54% 75.82 0.0
03 08:35 SW 26 16.09 Fair CLR 12 2 51% 75.82 0.0
03 08:15 SW 24 G 33 16.09 Fair CLR 11 2 54% 75.84 0.0
03 07:55 SW 22 G 35 16.09 Fair CLR 11 2 54% 75.87 0.0
03 07:35 SW 24 16.09 Fair CLR 11 2 54% 75.87 0.0
03 07:15 SW 20 16.09 Fair CLR 10 2 58% 8 75.87 0.0
03 06:55 SW 19 16.09 Fair CLR 9 2 62% 7 75.82 0.0
03 06:35 SW 24 16.09 Fair CLR 9 1 58% 6 75.79 0.0
03 06:15 SW 20 16.09 Fair CLR 9 1 58% 6 75.79 0.0
03 05:35 S 30 16.09 A Few Clouds FEW120 10 1 54% 7 75.79 0.0
03 05:15 S 26 16.09 A Few Clouds FEW120 10 1 54% 7 75.84 0.0
03 04:55 S 26 16.09 Fair CLR 10 1 54% 7 75.87 0.0
03 04:35 S 22 G 31 16.09 A Few Clouds FEW120 9 1 58% 6 75.9 0.0
03 04:15 SW 26 G 37 16.09 A Few Clouds FEW120 10 1 54% 7 75.9 0.0
03 03:55 S 26 G 35 16.09 A Few Clouds FEW120 10 1 54% 7 75.92 0.0
03 03:35 S 26 16.09 Fair CLR 9 0 54% 6 75.92 0.0
03 03:15 S 26 16.09 Fair CLR 9 0 54% 6 75.92 0.0
03 02:55 S 26 16.09 Fair CLR 9 0 54% 6 75.92 0.0
03 02:35 S 24 16.09 Fair CLR 9 0 54% 6 75.95 0.0
03 02:15 S 22 16.09 Fair CLR 9 0 54% 6 75.97 0.0
03 01:55 S 19 16.09 Fair CLR 8 0 57% 5 76.02 0.0
03 01:35 S 17 16.09 Fair CLR 8 0 57% 6 76.05 0.0
03 01:15 S 20 16.09 Fair CLR 9 0 54% 6 76.05 0.0
03 00:55 S 20 16.09 Fair CLR 8 0 57% 5 76.05 0.0
03 00:35 S 22 16.09 Fair CLR 9 0 54% 6 76.07 0.0
03 00:15 S 20 16.09 Fair CLR 9 0 54% 6 76.07 0.0
02 23:55 S 22 16.09 Fair CLR 9 0 54% 6 76.1 0.0
02 23:35 S 22 16.09 Fair CLR 9 0 54% 6 76.1 0.0
02 23:15 S 22 16.09 Fair CLR 9 0 54% 6 76.12 0.0
02 22:55 S 20 16.09 Fair CLR 9 0 54% 6 76.15 0.0
02 22:35 S 13 16.09 Fair CLR 9 0 54% 7 76.15 0.0
02 22:15 S 15 16.09 Fair CLR 9 0 54% 7 76.17 0.0
02 21:55 S 19 16.09 Fair CLR 10 -1 47% 8 76.17 0.0
02 21:35 S 20 16.09 Fair CLR 10 -1 47% 8 76.2 0.0
02 21:15 S 15 16.09 Fair CLR 11 -1 44% 76.2 0.0
02 20:55 S 15 16.09 Fair CLR 11 -1 44% 76.23 0.0
02 20:35 S 15 14.48 Fair CLR 12 -1 41% 76.23 0.0
02 20:15 SW 13 16.09 Fair CLR 12 -1 41% 76.23 0.0
02 19:55 SW 11 16.09 Fair CLR 14 -1 36% 76.2 0.0
02 19:35 SW 9 16.09 Fair CLR 15 -2 31% 76.23 0.0
02 19:15 SW 13 16.09 Fair CLR 16 -2 29% 76.23 0.0
02 18:55 W 19 16.09 Fair CLR 16 -2 29% 76.25 0.0
02 18:35 W 15 G 24 16.09 Fair CLR 16 -2 29% 76.28 0.0
02 18:15 W 15 G 26 16.09 Fair CLR 16 -3 27% 76.28 0.0
02 17:55 W 17 16.09 Fair CLR 17 -2 27% 76.28 0.0
02 17:35 W 15 G 30 16.09 Fair CLR 16 -3 27% 76.3 0.0
02 17:15 Vrbl 9 G 30 16.09 Fair CLR 16 -3 27% 76.3 0.0
02 16:55 W 13 G 33 16.09 Fair CLR 16 -3 27% 76.33 0.0
02 16:35 W 15 G 28 14.48 Fair CLR 16 -3 27% 76.33 0.0
02 16:15 W 13 G 26 16.09 Fair CLR 16 -2 29% 76.35 0.0
02 15:55 W 17 G 28 16.09 Fair CLR 16 -2 29% 76.38 0.0
02 15:35 Calm 16.09 Fair CLR 16 -1 31% 76.4 0.0
02 15:15 W 13 16.09 Fair CLR 16 -1 31% 76.43 0.0
02 14:55 NW 9 G 22 16.09 Fair CLR 15 -1 34% 76.45 0.0
02 14:35 Vrbl 11 G 22 16.09 Fair CLR 15 -2 31% 76.45 0.0
02 14:15 W 15 G 24 16.09 Fair CLR 15 -2 31% 76.45 0.0
02 13:55 Vrbl 6 G 24 16.09 Fair CLR 14 -3 31% 76.5 0.0
02 13:35 W 19 16.09 Fair CLR 14 -2 33% 76.5 0.0
02 13:15 W 11 G 28 16.09 Fair CLR 14 -3 31% 76.53 0.0
02 12:55 Vrbl 7 G 19 16.09 Fair CLR 14 -2 33% 76.53 0.0
02 12:35 W 19 16.09 Fair CLR 14 -2 33% 76.56 0.0
02 12:15 Vrbl 6 16.09 Fair CLR 13 -2 36% 76.56 0.0
02 11:55 N 9 G 24 16.09 Fair CLR 12 -3 35% 76.58 0.0
02 11:35 N 20 G 31 16.09 Fair CLR 13 -2 36% 76.58 0.0
02 11:15 NW 15 16.09 Fair CLR 12 -3 35% 76.61 0.0
02 10:55 NW 13 G 30 16.09 Fair CLR 12 -2 38% 76.61 0.0
02 10:35 NW 15 16.09 Fair CLR 11 -2 41% 76.61 0.0
02 10:15 NW 15 G 26 16.09 Fair CLR 11 -3 38% 76.61 0.0
02 09:55 Calm 16.09 Fair CLR 11 -3 38% 76.58 0.0
02 09:35 NW 13 16.09 Fair CLR 11 -2 41% 76.61 0.0
02 09:15 NW 9 16.09 Fair CLR 10 -3 40% 9 76.61 0.0
02 08:55 Calm 16.09 Fair CLR 9 -2 46% 76.61 0.0
02 08:35 N 7 16.09 Fair CLR 8 -2 50% 7 76.61 0.0
02 08:15 Calm 16.09 Fair CLR 7 -1 57% 76.61 0.0
02 07:55 Calm 0.00 Fair CLR 6 0 66% 76.58 0.0
02 07:35 NW 9 16.09 Fair CLR 4 0 75% 2 76.58 0.0
02 07:15 NW 11 16.09 Fair CLR 3 -1 75% 0 76.58 0.0
02 06:55 NW 7 16.09 Fair CLR 1 -1 87% -1 76.56 0.0
02 06:35 NW 9 16.09 Fair CLR 2 -2 75% -0 76.53 0.0
02 06:15 NW 11 16.09 Fair CLR 2 -2 75% -1 76.53 0.0
02 05:55 N 11 16.09 Fair CLR 2 -2 75% -1 76.53 0.0
02 05:35 NW 11 16.09 Fair CLR 2 -2 75% -1 76.5 0.0
02 05:15 NW 11 16.09 Fair CLR 2 -2 75% -1 76.5 0.0
02 04:55 N 11 16.09 Fair CLR 2 -2 75% -1 76.5 0.0
02 04:35 N 11 16.09 Fair CLR 3 -1 75% 0 76.5 0.0
02 04:15 N 11 16.09 Fair CLR 3 -1 75% 0 76.5 0.0
02 03:55 N 13 16.09 Fair CLR 3 -2 70% 0 76.5 0.0
02 03:35 N 13 16.09 Fair CLR 4 -1 70% 1 76.48 0.0
02 03:15 NW 9 16.09 Fair CLR 3 -1 75% 1 76.48 0.0
02 02:55 NW 13 16.09 Fair CLR 3 -1 75% 0 76.48 0.0
02 02:15 NW 11 16.09 Fair CLR 4 -1 70% 2 76.5 0.0
02 01:55 NW 11 16.09 Fair CLR 4 0 75% 2 76.5 0.0
02 01:35 NW 9 16.09 Fair CLR 4 0 75% 2 76.5 0.0
02 01:15 NW 9 16.09 Fair CLR 5 0 70% 3 76.5 0.0
02 00:55 NW 9 16.09 Fair CLR 5 0 70% 3 76.5 0.0
02 00:35 N 7 16.09 Fair CLR 6 -1 61% 5 76.5 0.0
02 00:15 N 7 16.09 Fair CLR 6 -1 61% 5 76.48 0.0
01 23:55 N 9 16.09 Fair CLR 7 -1 57% 5 76.48 0.0
01 23:35 N 11 16.09 Fair CLR 7 -1 57% 5 76.48 0.0
01 23:15 N 9 16.09 Fair CLR 7 -1 57% 5 76.48 0.0
01 22:55 N 11 16.09 Fair CLR 7 -1 57% 5 76.48 0.0
01 22:35 N 11 16.09 Fair CLR 8 -1 53% 6 76.45 0.0
01 22:15 N 13 16.09 A Few Clouds FEW075 7 -1 57% 5 76.45 0.0
01 21:55 N 11 16.09 Partly Cloudy SCT075 8 -1 53% 6 76.43 0.0
01 21:35 N 13 16.09 Partly Cloudy SCT080 8 -1 53% 6 76.43 0.0
01 21:15 N 11 16.09 A Few Clouds FEW080 9 -1 50% 8 76.4 0.0
01 20:55 N 13 16.09 Mostly Cloudy BKN080 9 -1 50% 7 76.38 0.0
01 20:35 N 11 16.09 Mostly Cloudy BKN080 10 0 50% 9 76.35 0.0
01 20:15 N 13 16.09 Partly Cloudy SCT085 10 0 50% 8 76.33 0.0
Date Time (cdt) Wind (kph) Vis. (km) Weather Sky Cond. Air Dwpt Max. Min. Relative Humidity Wind Chill (°C) Heat Index (°C) altimeter (cm) sea level (mb) 1 hr 3 hr 6 hr
6 hour
Temperature (ºC) Pressure Precipitation (cm)